Time;durP1;ratioP1;P1;durP2;ratioP2;P2;SDS_P1;SDS_P2;PMS_P1;PMS_P2;Temp;Humidity;BMP_temperature;BMP_pressure;BME280_temperature;BME280_humidity;BME280_pressure;Samples;Min_cycle;Max_cycle;Signal;HPM_P1;HPM_P2
2022/02/01 00:00:41;;;;;;;0.30;0.30;;;3.00;97.80;;;;;;5037067;28;20403;-68
2022/02/01 00:03:08;;;;;;;0.30;0.30;;;3.00;97.30;;;;;;5036956;28;20180;-68
2022/02/01 00:05:40;;;;;;;0.40;0.40;;;3.00;97.00;;;;;;5036674;28;20585;-69
2022/02/01 00:34:51;;;;;;;0.40;0.40;;;3.10;96.70;;;;;;5036015;28;20247;-68
2022/02/01 00:37:19;;;;;;;0.30;0.30;;;3.20;96.50;;;;;;5035736;28;20230;-68
2022/02/01 00:39:46;;;;;;;0.38;0.38;;;3.10;96.50;;;;;;5035336;28;20621;-68
2022/02/01 00:42:14;;;;;;;0.30;0.30;;;3.10;96.60;;;;;;5036261;28;20174;-68
2022/02/01 00:44:41;;;;;;;0.30;0.30;;;3.20;96.70;;;;;;5035907;28;20539;-68
2022/02/01 00:47:07;;;;;;;0.30;0.30;;;3.30;96.70;;;;;;5035888;28;20180;-68
2022/02/01 00:49:35;;;;;;;0.30;0.30;;;3.50;96.50;;;;;;5035876;28;20216;-68
2022/02/01 00:52:01;;;;;;;0.40;0.40;;;3.40;96.20;;;;;;5035873;28;20180;-68
2022/02/01 00:54:26;;;;;;;0.30;0.30;;;3.50;96.00;;;;;;5035726;28;20679;-69
2022/02/01 00:56:52;;;;;;;0.37;0.37;;;3.30;95.70;;;;;;5035937;28;20448;-68
2022/02/01 00:59:18;;;;;;;0.30;0.30;;;3.00;95.80;;;;;;5035606;28;20173;-68
2022/02/01 01:01:43;;;;;;;0.30;0.30;;;3.10;96.00;;;;;;5035845;28;20175;-68
2022/02/01 01:04:09;;;;;;;0.30;0.30;;;3.10;95.90;;;;;;5034353;28;20197;-68
2022/02/01 01:06:35;;;;;;;0.30;0.30;;;2.80;96.10;;;;;;5035651;28;20177;-68
2022/02/01 01:09:00;;;;;;;0.30;0.30;;;2.70;96.60;;;;;;5035379;28;20585;-68
2022/02/01 01:11:26;;;;;;;0.40;0.40;;;2.90;96.50;;;;;;5035765;28;20260;-68
2022/02/01 01:38:52;;;;;;;0.40;0.40;;;3.20;95.60;;;;;;5035588;28;20442;-68
2022/02/01 01:43:57;;;;;;;0.40;0.40;;;3.30;95.10;;;;;;5035020;28;20205;-68
2022/02/01 01:54:20;;;;;;;0.32;0.32;;;3.20;94.80;;;;;;5034666;28;20209;-68
2022/02/01 01:56:46;;;;;;;0.30;0.30;;;2.80;95.00;;;;;;5034637;28;20271;-68
2022/02/01 01:59:13;;;;;;;0.30;0.30;;;2.70;96.00;;;;;;5034515;28;20643;-68
2022/02/01 02:01:40;;;;;;;0.30;0.30;;;2.90;96.30;;;;;;5034717;28;20173;-68
2022/02/01 02:04:07;;;;;;;0.30;0.30;;;3.10;95.80;;;;;;5034614;28;20186;-68
2022/02/01 02:06:33;;;;;;;0.30;0.30;;;3.00;95.50;;;;;;5034430;28;20185;-68
2022/02/01 02:09:02;;;;;;;0.40;0.40;;;3.20;95.60;;;;;;5034480;28;20219;-68
2022/02/01 02:11:48;;;;;;;0.40;0.40;;;3.30;95.40;;;;;;5034441;28;20172;-68
2022/02/01 02:16:54;;;;;;;0.30;0.30;;;3.00;95.20;;;;;;5034132;28;20598;-68
2022/02/01 02:19:21;;;;;;;0.40;0.40;;;3.00;95.30;;;;;;5034424;28;20173;-68
2022/02/01 02:22:07;;;;;;;0.30;0.30;;;3.10;95.30;;;;;;5034362;28;20214;-67
2022/02/01 02:24:38;;;;;;;0.30;0.30;;;3.30;95.00;;;;;;5032862;28;20747;-68
2022/02/01 02:27:04;;;;;;;0.30;0.30;;;3.40;94.60;;;;;;5034056;28;20166;-68
2022/02/01 02:29:30;;;;;;;0.30;0.30;;;3.40;95.10;;;;;;5032596;28;20205;-68
2022/02/01 02:31:57;;;;;;;0.30;0.30;;;2.90;95.20;;;;;;5033931;28;20656;-68
2022/02/01 02:34:24;;;;;;;0.40;0.40;;;2.60;95.70;;;;;;5033669;28;20216;-69
2022/02/01 02:36:59;;;;;;;0.40;0.40;;;2.70;96.30;;;;;;5033908;28;20200;-68
2022/02/01 02:39:46;;;;;;;0.30;0.30;;;2.80;96.20;;;;;;5033564;28;20260;-68
2022/02/01 02:42:28;;;;;;;0.40;0.40;;;2.90;96.00;;;;;;5034176;28;20188;-67
2022/02/01 02:45:09;;;;;;;0.30;0.30;;;2.70;96.00;;;;;;5033746;28;20203;-68
2022/02/01 02:47:35;;;;;;;0.30;0.30;;;2.50;96.20;;;;;;5034013;28;20171;-68
2022/02/01 02:50:01;;;;;;;0.30;0.30;;;2.70;96.60;;;;;;5033534;28;20184;-68
2022/02/01 02:52:27;;;;;;;0.30;0.30;;;2.60;96.60;;;;;;5033682;28;20222;-68
2022/02/01 02:54:57;;;;;;;0.30;0.30;;;2.60;96.90;;;;;;5033751;28;20666;-68
2022/02/01 02:57:23;;;;;;;0.30;0.30;;;2.70;96.90;;;;;;5033639;28;20727;-68
2022/02/01 02:59:50;;;;;;;0.40;0.40;;;2.80;96.70;;;;;;5032164;28;20177;-67
2022/02/01 03:02:15;;;;;;;0.30;0.30;;;2.90;96.30;;;;;;5033293;28;20178;-68
2022/02/01 03:04:41;;;;;;;0.30;0.30;;;3.10;96.30;;;;;;5033425;28;20204;-68
2022/02/01 03:07:07;;;;;;;0.30;0.30;;;3.20;96.10;;;;;;5032279;28;20192;-68
2022/02/01 03:09:39;;;;;;;0.30;0.30;;;3.10;95.80;;;;;;5033514;28;20180;-68
2022/02/01 03:12:05;;;;;;;0.30;0.30;;;2.90;96.00;;;;;;5033602;28;20172;-68
2022/02/01 03:19:49;;;;;;;0.40;0.40;;;3.10;96.40;;;;;;5033607;28;20226;-68
2022/02/01 03:22:30;;;;;;;0.35;0.35;;;3.20;96.20;;;;;;5033456;28;20177;-68
2022/02/01 03:24:58;;;;;;;0.40;0.40;;;2.90;95.80;;;;;;5032064;28;20200;-68
2022/02/01 03:27:24;;;;;;;0.30;0.30;;;2.90;96.30;;;;;;5033486;28;20585;-68
2022/02/01 03:29:50;;;;;;;0.30;0.30;;;3.10;96.30;;;;;;5033058;28;20179;-68
2022/02/01 03:32:17;;;;;;;0.30;0.30;;;3.10;96.20;;;;;;5033390;28;20190;-68
2022/02/01 03:34:43;;;;;;;0.40;0.40;;;3.10;96.20;;;;;;5033061;28;20209;-68
2022/02/01 03:37:09;;;;;;;0.38;0.38;;;3.00;96.20;;;;;;5033254;28;20204;-68
2022/02/01 03:39:34;;;;;;;0.40;0.40;;;3.10;96.20;;;;;;5033082;28;20168;-68
2022/02/01 03:42:01;;;;;;;0.30;0.30;;;2.90;96.00;;;;;;5033129;28;20173;-68
2022/02/01 03:44:28;;;;;;;0.30;0.30;;;2.70;96.30;;;;;;5033011;28;20197;-68
2022/02/01 03:47:01;;;;;;;0.40;0.40;;;2.60;96.50;;;;;;5033459;28;20178;-67
2022/02/01 03:49:31;;;;;;;0.40;0.40;;;2.70;96.60;;;;;;5031809;28;20551;-68
2022/02/01 03:51:58;;;;;;;0.30;0.30;;;2.80;96.50;;;;;;5033235;28;20659;-68
2022/02/01 03:54:26;;;;;;;0.30;0.30;;;2.90;96.30;;;;;;5033009;28;20209;-68
2022/02/01 03:56:52;;;;;;;0.30;0.30;;;2.90;95.90;;;;;;5031648;28;20672;-68
2022/02/01 03:59:19;;;;;;;0.40;0.40;;;3.00;95.80;;;;;;5032909;28;20177;-67
2022/02/01 04:01:45;;;;;;;0.30;0.30;;;2.80;95.70;;;;;;5031756;28;20173;-68
2022/02/01 04:04:13;;;;;;;0.30;0.30;;;2.80;95.90;;;;;;5033125;28;20189;-68
2022/02/01 04:06:39;;;;;;;0.30;0.30;;;2.60;96.30;;;;;;5032993;28;20178;-68
2022/02/01 04:09:04;;;;;;;0.38;0.38;;;2.70;96.20;;;;;;5032882;28;20187;-68
2022/02/01 04:11:30;;;;;;;0.30;0.30;;;2.80;95.90;;;;;;5032881;28;20263;-68
2022/02/01 04:13:56;;;;;;;0.30;0.30;;;2.90;95.90;;;;;;5034594;28;20601;-67
2022/02/01 04:16:21;;;;;;;0.33;0.33;;;2.80;95.80;;;;;;5036532;28;20205;-68
2022/02/01 04:18:47;;;;;;;0.30;0.30;;;2.50;96.00;;;;;;5036647;28;20621;-68
2022/02/01 04:21:12;;;;;;;0.30;0.30;;;2.60;96.40;;;;;;5036680;28;20538;-68
2022/02/01 04:23:38;;;;;;;0.30;0.30;;;2.70;96.10;;;;;;5036363;28;20193;-68
2022/02/01 04:26:04;;;;;;;0.30;0.30;;;2.50;96.00;;;;;;5036372;28;20212;-68
2022/02/01 04:28:29;;;;;;;0.50;0.50;;;2.10;96.60;;;;;;5036174;28;20632;-68
2022/02/01 04:30:55;;;;;;;0.40;0.40;;;2.20;96.90;;;;;;5036328;28;20254;-68
2022/02/01 04:33:20;;;;;;;0.30;0.30;;;2.30;96.70;;;;;;5036183;28;20203;-67
2022/02/01 04:35:47;;;;;;;0.37;0.37;;;2.50;96.70;;;;;;5036185;28;20188;-68
2022/02/01 04:38:12;;;;;;;0.30;0.30;;;2.40;96.20;;;;;;5036170;28;20626;-68
2022/02/01 04:40:38;;;;;;;0.40;0.40;;;2.40;96.00;;;;;;5036343;28;20226;-68
2022/02/01 04:43:05;;;;;;;0.30;0.30;;;2.30;96.20;;;;;;5036377;28;20178;-68
2022/02/01 04:45:31;;;;;;;0.30;0.30;;;1.80;96.60;;;;;;5036015;28;20614;-68
2022/02/01 04:47:56;;;;;;;0.30;0.30;;;1.80;97.40;;;;;;5036135;28;20207;-68
2022/02/01 04:50:29;;;;;;;0.30;0.30;;;2.10;97.20;;;;;;5035931;28;20227;-68
2022/02/01 04:52:55;;;;;;;0.30;0.30;;;2.30;96.90;;;;;;5034691;28;20490;-68
2022/02/01 04:55:24;;;;;;;0.30;0.30;;;2.50;96.80;;;;;;5035702;28;20545;-67
2022/02/01 04:57:54;;;;;;;0.30;0.30;;;2.40;96.50;;;;;;5036074;28;20175;-68
2022/02/01 05:00:25;;;;;;;0.40;0.40;;;2.40;96.50;;;;;;5035795;28;20203;-68
2022/02/01 05:02:52;;;;;;;0.32;0.32;;;2.60;96.60;;;;;;5035860;28;20215;-68
2022/02/01 05:05:22;;;;;;;0.30;0.30;;;2.60;96.60;;;;;;5035644;28;20538;-68
2022/02/01 05:07:47;;;;;;;0.30;0.30;;;2.60;96.20;;;;;;5035570;28;20174;-68
2022/02/01 05:10:13;;;;;;;0.33;0.33;;;2.70;96.20;;;;;;5035505;28;20539;-68
2022/02/01 05:12:39;;;;;;;0.40;0.40;;;2.80;96.10;;;;;;5035637;28;20170;-68
2022/02/01 05:15:07;;;;;;;0.30;0.30;;;2.80;95.70;;;;;;5035527;28;20686;-68
2022/02/01 05:17:36;;;;;;;0.30;0.30;;;3.00;95.40;;;;;;5035545;28;20618;-67
2022/02/01 05:20:14;;;;;;;0.40;0.40;;;2.40;95.30;;;;;;5035129;28;20186;-68
2022/02/01 05:22:41;;;;;;;0.30;0.30;;;2.30;95.80;;;;;;5035367;28;20173;-68
2022/02/01 05:25:07;;;;;;;0.30;0.30;;;2.50;95.90;;;;;;5034768;28;20197;-68
2022/02/01 05:27:33;;;;;;;0.30;0.30;;;2.50;95.80;;;;;;5035445;28;20535;-68
2022/02/01 05:29:59;;;;;;;0.30;0.30;;;2.50;95.90;;;;;;5035092;28;20172;-68
2022/02/01 05:32:25;;;;;;;0.30;0.30;;;2.40;95.70;;;;;;5035337;28;20223;-68
2022/02/01 05:34:52;;;;;;;0.32;0.32;;;2.40;95.90;;;;;;5034916;28;20234;-68
2022/02/01 05:37:18;;;;;;;0.30;0.30;;;2.40;96.00;;;;;;5035193;28;20654;-68
2022/02/01 05:39:44;;;;;;;0.30;0.30;;;2.70;96.00;;;;;;5034936;28;20256;-67
2022/02/01 05:42:14;;;;;;;0.30;0.30;;;2.90;95.80;;;;;;5035169;28;20174;-68
2022/02/01 05:44:40;;;;;;;0.40;0.40;;;2.70;95.50;;;;;;5034801;28;20427;-68
2022/02/01 05:47:06;;;;;;;0.30;0.30;;;2.50;95.60;;;;;;5034836;28;20183;-68
2022/02/01 05:49:31;;;;;;;0.30;0.30;;;2.60;95.80;;;;;;5034607;28;20188;-68
2022/02/01 05:52:00;;;;;;;0.30;0.30;;;2.80;95.80;;;;;;5034833;28;20229;-68
2022/02/01 05:54:28;;;;;;;0.30;0.30;;;2.90;95.50;;;;;;5034653;28;20187;-68
2022/02/01 05:56:54;;;;;;;0.35;0.35;;;2.90;95.50;;;;;;5034727;28;20260;-68
2022/02/01 05:59:20;;;;;;;0.40;0.40;;;3.00;95.40;;;;;;5033044;28;20803;-68
2022/02/01 06:01:45;;;;;;;0.30;0.30;;;3.00;95.30;;;;;;5034536;28;20259;-68
2022/02/01 06:04:11;;;;;;;0.30;0.30;;;2.90;95.10;;;;;;5034305;28;20203;-68
2022/02/01 06:06:37;;;;;;;0.30;0.30;;;2.90;95.20;;;;;;5034529;28;20188;-68
2022/02/01 06:09:02;;;;;;;0.30;0.30;;;2.10;95.20;;;;;;5034480;28;20177;-68
2022/02/01 06:11:29;;;;;;;0.30;0.30;;;2.10;96.10;;;;;;5034526;28;20256;-68
2022/02/01 06:13:55;;;;;;;0.35;0.35;;;2.40;96.50;;;;;;5034183;28;20216;-68
2022/02/01 06:16:20;;;;;;;0.30;0.30;;;2.60;95.80;;;;;;5034151;28;20237;-68
2022/02/01 06:18:46;;;;;;;0.30;0.30;;;2.40;95.70;;;;;;5034616;28;20173;-68
2022/02/01 06:21:12;;;;;;;0.30;0.30;;;2.60;95.90;;;;;;5034285;28;20172;-68
2022/02/01 06:23:40;;;;;;;0.30;0.30;;;2.60;95.50;;;;;;5034113;28;20184;-68
2022/02/01 06:26:05;;;;;;;0.38;0.38;;;2.50;95.20;;;;;;5034206;28;20204;-68
2022/02/01 06:28:31;;;;;;;0.30;0.30;;;2.20;95.60;;;;;;5032798;28;20209;-68
2022/02/01 06:30:57;;;;;;;0.30;0.30;;;2.50;95.70;;;;;;5033938;28;20412;-68
2022/02/01 06:33:23;;;;;;;0.30;0.30;;;2.40;95.40;;;;;;5033969;28;20216;-68
2022/02/01 06:35:49;;;;;;;0.30;0.30;;;2.40;95.60;;;;;;5033259;28;20445;-68
2022/02/01 06:38:15;;;;;;;0.30;0.30;;;2.60;95.50;;;;;;5033834;28;20173;-68
2022/02/01 06:40:46;;;;;;;0.30;0.30;;;2.50;95.00;;;;;;5033900;28;20642;-68
2022/02/01 06:43:13;;;;;;;0.30;0.30;;;2.60;95.00;;;;;;5033981;28;20403;-68
2022/02/01 06:45:40;;;;;;;0.30;0.30;;;2.80;94.60;;;;;;5033795;28;20171;-68
2022/02/01 06:48:05;;;;;;;0.40;0.40;;;2.70;94.40;;;;;;5033833;28;20167;-68
2022/02/01 06:50:31;;;;;;;0.30;0.30;;;2.70;94.60;;;;;;5033669;28;20531;-68
2022/02/01 06:52:58;;;;;;;0.30;0.30;;;2.70;94.70;;;;;;5033765;28;20179;-68
2022/02/01 06:58:00;;;;;;;0.40;0.40;;;2.40;95.50;;;;;;5033788;28;20219;-68
2022/02/01 07:00:27;;;;;;;0.30;0.30;;;2.50;95.30;;;;;;5033448;28;20701;-68
2022/02/01 07:02:53;;;;;;;0.60;0.60;;;2.50;95.30;;;;;;5033730;28;20181;-68
2022/02/01 07:05:18;;;;;;;0.30;0.30;;;2.50;95.30;;;;;;5033806;28;20182;-68
2022/02/01 07:07:44;;;;;;;0.40;0.40;;;2.70;95.60;;;;;;5033560;28;20177;-68
2022/02/01 07:10:10;;;;;;;0.40;0.40;;;2.80;95.60;;;;;;5033251;28;20415;-68
2022/02/01 07:12:36;;;;;;;0.30;0.30;;;2.80;95.30;;;;;;5033623;28;20656;-68
2022/02/01 07:15:02;;;;;;;0.30;0.30;;;2.90;95.20;;;;;;5033792;28;20189;-68
2022/02/01 07:17:28;;;;;;;0.40;0.40;;;2.80;94.90;;;;;;5033387;28;20211;-68
2022/02/01 07:19:53;;;;;;;0.30;0.30;;;2.50;95.10;;;;;;5033297;28;20172;-68
2022/02/01 07:22:19;;;;;;;0.30;0.30;;;2.60;95.80;;;;;;5033528;28;20173;-68
2022/02/01 07:25:24;;;;;;;0.40;0.40;;;2.50;95.40;;;;;;5033290;28;20565;-68
2022/02/01 07:27:42;;;;;;;0.32;0.32;;;2.60;95.50;;;;;;5031219;28;20189;-68
2022/02/01 07:30:11;;;;;;;0.40;0.40;;;2.80;95.50;;;;;;5033323;28;20698;-68
2022/02/01 07:32:37;;;;;;;0.32;0.32;;;2.90;95.40;;;;;;5033415;28;20222;-68
2022/02/01 07:35:04;;;;;;;0.32;0.32;;;3.00;95.10;;;;;;5033090;28;20261;-68
2022/02/01 07:37:29;;;;;;;0.40;0.40;;;2.90;94.80;;;;;;5033262;28;20368;-68
2022/02/01 07:39:55;;;;;;;0.40;0.40;;;2.60;95.20;;;;;;5033132;28;20529;-67
2022/02/01 07:42:21;;;;;;;0.40;0.40;;;2.50;95.20;;;;;;5031944;28;20267;-68
2022/02/01 07:44:47;;;;;;;0.37;0.37;;;2.50;95.40;;;;;;5033117;28;20189;-68
2022/02/01 07:47:20;;;;;;;0.33;0.33;;;2.60;95.40;;;;;;5033791;28;20222;-68
2022/02/01 07:49:46;;;;;;;0.35;0.35;;;2.60;95.50;;;;;;5036965;28;20910;-68
2022/02/01 07:52:12;;;;;;;0.40;0.40;;;2.70;95.60;;;;;;5037128;28;20185;-68
2022/02/01 07:54:37;;;;;;;0.40;0.40;;;2.70;95.50;;;;;;5036988;28;20733;-67
2022/02/01 07:57:03;;;;;;;0.40;0.40;;;2.70;95.50;;;;;;5036944;28;20213;-68
2022/02/01 07:59:29;;;;;;;0.40;0.40;;;2.80;95.60;;;;;;5036818;28;20174;-68
2022/02/01 08:01:54;;;;;;;0.40;0.40;;;2.90;95.50;;;;;;5036960;28;20174;-68
2022/02/01 08:04:20;;;;;;;0.40;0.40;;;2.90;95.40;;;;;;5036807;28;20190;-68
2022/02/01 08:06:46;;;;;;;0.30;0.30;;;2.90;95.30;;;;;;5036872;28;20192;-68
2022/02/01 08:09:23;;;;;;;0.33;0.33;;;2.80;95.60;;;;;;5036698;28;20176;-68
2022/02/01 08:11:49;;;;;;;0.30;0.30;;;2.80;95.90;;;;;;5036647;28;20168;-68
2022/02/01 08:17:46;;;;;;;0.30;0.30;;;2.70;95.60;;;;;;5036419;28;20242;-67
2022/02/01 08:20:01;;;;;;;0.30;0.30;;;2.80;95.70;;;;;;5030694;28;20208;-67
2022/02/01 08:23:00;;;;;;;0.38;0.38;;;2.90;95.20;;;;;;5035300;28;20177;-67
2022/02/01 08:25:16;;;;;;;0.38;0.38;;;2.80;95.00;;;;;;5035730;28;20202;-67
2022/02/01 08:27:42;;;;;;;0.30;0.30;;;2.70;95.00;;;;;;5036328;28;20177;-67
2022/02/01 08:30:10;;;;;;;0.30;0.30;;;2.60;95.10;;;;;;5036059;28;20169;-67
2022/02/01 08:32:37;;;;;;;0.30;0.30;;;2.50;95.30;;;;;;5036550;28;20672;-67
2022/02/01 08:35:05;;;;;;;0.38;0.38;;;2.40;95.60;;;;;;5036082;28;20208;-68
2022/02/01 08:37:30;;;;;;;0.32;0.32;;;2.50;95.80;;;;;;5036317;28;20280;-67
2022/02/01 08:39:56;;;;;;;0.40;0.40;;;2.60;95.60;;;;;;5035933;28;20267;-68
2022/02/01 08:42:22;;;;;;;0.30;0.30;;;2.80;95.40;;;;;;5035959;28;20406;-67
2022/02/01 08:44:48;;;;;;;0.30;0.30;;;3.00;95.10;;;;;;5035906;28;20189;-68
2022/02/01 08:47:15;;;;;;;0.30;0.30;;;3.10;94.50;;;;;;5036110;28;20172;-67
2022/02/01 08:49:42;;;;;;;0.30;0.30;;;2.90;94.50;;;;;;5035892;28;20230;-68
2022/02/01 08:52:12;;;;;;;0.30;0.30;;;2.90;94.60;;;;;;5036171;28;20173;-68
2022/02/01 08:54:39;;;;;;;0.32;0.32;;;2.80;94.70;;;;;;5035918;28;20193;-68
2022/02/01 08:57:21;;;;;;;0.30;0.30;;;2.90;94.70;;;;;;5035778;28;20289;-67
2022/02/01 08:59:51;;;;;;;0.40;0.40;;;2.70;94.40;;;;;;5034822;28;20187;-67
2022/02/01 09:02:19;;;;;;;0.40;0.40;;;2.50;94.50;;;;;;5035977;28;20176;-67
2022/02/01 09:04:44;;;;;;;0.30;0.30;;;2.60;95.00;;;;;;5035575;28;20190;-68
2022/02/01 09:07:10;;;;;;;0.40;0.40;;;2.60;95.00;;;;;;5035757;28;20181;-68
2022/02/01 09:09:37;;;;;;;0.30;0.30;;;2.60;94.60;;;;;;5035455;28;20256;-68
2022/02/01 09:12:04;;;;;;;0.30;0.30;;;2.80;94.50;;;;;;5035544;28;20898;-68
2022/02/01 09:14:30;;;;;;;0.30;0.30;;;2.80;94.30;;;;;;5035384;28;20358;-68
2022/02/01 09:16:56;;;;;;;0.30;0.30;;;2.80;94.50;;;;;;5035513;28;20204;-68
2022/02/01 09:19:22;;;;;;;0.30;0.30;;;3.00;94.50;;;;;;5034042;28;20173;-67
2022/02/01 09:21:48;;;;;;;0.40;0.40;;;3.10;94.10;;;;;;5034023;28;20414;-67
2022/02/01 09:24:13;;;;;;;0.30;0.30;;;3.10;94.00;;;;;;5035259;28;20438;-67
2022/02/01 09:26:39;;;;;;;0.30;0.30;;;3.20;93.80;;;;;;5035477;28;20378;-68
2022/02/01 09:29:07;;;;;;;0.30;0.30;;;3.20;93.70;;;;;;5035209;28;20692;-67
2022/02/01 09:31:33;;;;;;;0.32;0.32;;;3.40;93.60;;;;;;5034990;28;20175;-67
2022/02/01 09:33:58;;;;;;;0.30;0.30;;;3.40;93.40;;;;;;5034938;28;20220;-67
2022/02/01 09:36:24;;;;;;;0.30;0.30;;;3.50;93.30;;;;;;5034806;28;20589;-67
2022/02/01 09:38:52;;;;;;;0.40;0.40;;;3.40;93.20;;;;;;5034724;28;20180;-67
2022/02/01 09:41:18;;;;;;;0.38;0.38;;;3.30;93.20;;;;;;5035092;28;20168;-67
2022/02/01 09:43:44;;;;;;;0.40;0.40;;;3.20;93.60;;;;;;5034850;28;20203;-67
2022/02/01 09:46:10;;;;;;;0.35;0.35;;;3.20;93.90;;;;;;5034760;28;20174;-68
2022/02/01 09:48:36;;;;;;;0.40;0.40;;;3.20;93.70;;;;;;5034708;28;20693;-68
2022/02/01 09:51:04;;;;;;;0.30;0.30;;;3.10;93.50;;;;;;5035230;28;20228;-67
2022/02/01 09:53:30;;;;;;;0.30;0.30;;;3.20;93.90;;;;;;5034624;28;20204;-67
2022/02/01 09:55:56;;;;;;;0.30;0.30;;;3.30;94.00;;;;;;5034594;28;20202;-68
2022/02/01 09:58:33;;;;;;;0.30;0.30;;;3.40;93.80;;;;;;5034566;28;20261;-67
2022/02/01 10:01:02;;;;;;;0.32;0.32;;;2.90;93.60;;;;;;5034740;28;20248;-68
2022/02/01 10:03:28;;;;;;;0.30;0.30;;;3.10;94.10;;;;;;5034650;28;20279;-67
2022/02/01 10:06:08;;;;;;;0.30;0.30;;;3.20;93.90;;;;;;5034490;28;20179;-67
2022/02/01 10:08:34;;;;;;;0.30;0.30;;;3.20;93.50;;;;;;5034432;28;20238;-67
2022/02/01 10:11:00;;;;;;;0.30;0.30;;;3.10;93.50;;;;;;5033267;28;20238;-68
2022/02/01 10:13:27;;;;;;;0.40;0.40;;;3.20;93.80;;;;;;5034484;28;20198;-66
2022/02/01 10:16:01;;;;;;;0.38;0.38;;;3.20;93.60;;;;;;5034167;28;20478;-67
2022/02/01 10:18:32;;;;;;;0.30;0.30;;;3.10;93.40;;;;;;5034059;28;20198;-68
2022/02/01 10:21:10;;;;;;;0.30;0.30;;;3.10;93.50;;;;;;5034390;28;20165;-67
2022/02/01 10:23:38;;;;;;;0.30;0.30;;;3.10;93.30;;;;;;5034222;28;20196;-67
2022/02/01 10:26:08;;;;;;;0.30;0.30;;;3.20;93.80;;;;;;5034193;28;20184;-68
2022/02/01 10:31:27;;;;;;;0.30;0.30;;;3.40;93.20;;;;;;5034286;28;20214;-68
2022/02/01 10:34:00;;;;;;;0.38;0.38;;;3.50;92.80;;;;;;5033834;28;20210;-68
2022/02/01 10:36:40;;;;;;;0.40;0.40;;;3.70;92.70;;;;;;5034016;28;20254;-68
2022/02/01 10:39:34;;;;;;;0.40;0.40;;;3.60;92.40;;;;;;5033781;28;20669;-68
2022/02/01 10:42:03;;;;;;;0.40;0.40;;;3.70;92.60;;;;;;5034157;28;20210;-68
2022/02/01 10:44:49;;;;;;;0.30;0.30;;;3.50;92.40;;;;;;5033781;28;20320;-67
2022/02/01 10:47:28;;;;;;;0.30;0.30;;;3.80;92.80;;;;;;5034056;28;20533;-69
2022/02/01 10:49:54;;;;;;;0.30;0.30;;;4.10;92.10;;;;;;5033686;28;20231;-68
2022/02/01 10:52:20;;;;;;;0.30;0.30;;;4.20;91.30;;;;;;5033798;28;20641;-68
2022/02/01 10:54:45;;;;;;;0.30;0.30;;;4.10;91.10;;;;;;5033600;28;20271;-68
2022/02/01 10:57:12;;;;;;;0.97;0.97;;;4.40;91.20;;;;;;5033755;28;20695;-67
2022/02/01 10:59:39;;;;;;;0.30;0.30;;;4.40;91.00;;;;;;5033416;28;20181;-68
2022/02/01 11:02:05;;;;;;;0.35;0.35;;;4.30;90.50;;;;;;5033848;28;20627;-67
2022/02/01 11:04:36;;;;;;;0.40;0.40;;;4.00;90.70;;;;;;5033500;28;20191;-68
2022/02/01 11:07:02;;;;;;;0.30;0.30;;;3.90;90.80;;;;;;5033735;28;20233;-67
2022/02/01 11:09:32;;;;;;;0.30;0.30;;;3.90;90.90;;;;;;5033331;28;20171;-68
2022/02/01 11:12:10;;;;;;;0.30;0.30;;;4.10;91.40;;;;;;5033613;28;20644;-68
2022/02/01 11:14:48;;;;;;;0.30;0.30;;;4.10;90.90;;;;;;5033413;28;20296;-67
2022/02/01 11:17:15;;;;;;;0.30;0.30;;;4.00;90.90;;;;;;5033414;28;20205;-68
2022/02/01 11:19:51;;;;;;;0.38;0.38;;;4.10;91.00;;;;;;5033250;28;20175;-68
2022/02/01 11:22:32;;;;;;;0.30;0.30;;;4.30;90.60;;;;;;5035688;28;20170;-68
2022/02/01 11:25:29;;;;;;;0.40;0.40;;;4.30;90.40;;;;;;5040010;28;20281;-68
2022/02/01 11:30:36;;;;;;;0.30;0.30;;;4.20;90.60;;;;;;5040022;28;20236;-67
2022/02/01 11:33:04;;;;;;;0.40;0.40;;;4.30;90.90;;;;;;5039831;28;20257;-67
2022/02/01 11:35:29;;;;;;;0.40;0.40;;;4.30;91.20;;;;;;5040006;28;20170;-67
2022/02/01 11:38:14;;;;;;;0.40;0.40;;;4.60;91.20;;;;;;5039937;28;20174;-67
2022/02/01 11:40:48;;;;;;;0.40;0.40;;;4.50;90.60;;;;;;5039937;28;20257;-67
2022/02/01 11:43:17;;;;;;;0.40;0.40;;;4.40;90.60;;;;;;5039952;28;20254;-67
2022/02/01 11:45:53;;;;;;;0.40;0.40;;;4.30;91.10;;;;;;5039660;28;20261;-68
2022/02/01 11:48:25;;;;;;;0.40;0.40;;;4.30;91.40;;;;;;5039800;28;20178;-68
2022/02/01 11:51:07;;;;;;;0.40;0.40;;;4.10;91.60;;;;;;5039798;28;20262;-68
2022/02/01 11:53:33;;;;;;;0.40;0.40;;;3.60;91.70;;;;;;5039889;28;20202;-68
2022/02/01 11:55:59;;;;;;;0.30;0.30;;;3.20;92.10;;;;;;5038354;28;20617;-68
2022/02/01 11:58:45;;;;;;;0.40;0.40;;;3.20;93.20;;;;;;5039418;28;20174;-67
2022/02/01 12:01:35;;;;;;;0.40;0.40;;;3.40;93.20;;;;;;5039733;28;20225;-67
2022/02/01 12:04:06;;;;;;;0.30;0.30;;;3.40;92.90;;;;;;5039725;28;20277;-67
2022/02/01 12:06:56;;;;;;;0.40;0.40;;;3.40;92.70;;;;;;5040040;28;20602;-67
2022/02/01 12:09:23;;;;;;;0.40;0.40;;;3.30;92.60;;;;;;5039526;28;20182;-67
2022/02/01 12:11:56;;;;;;;0.40;0.40;;;3.20;93.00;;;;;;5039519;28;20228;-67
2022/02/01 12:14:22;;;;;;;0.30;0.30;;;3.40;93.20;;;;;;5039479;28;20194;-68
2022/02/01 12:16:49;;;;;;;0.30;0.30;;;3.20;92.60;;;;;;5039396;28;20732;-68
2022/02/01 12:19:22;;;;;;;0.40;0.40;;;3.20;93.10;;;;;;5039390;28;20171;-68
2022/02/01 12:22:01;;;;;;;0.30;0.30;;;3.20;93.10;;;;;;5039896;28;20182;-67
2022/02/01 12:24:27;;;;;;;0.40;0.40;;;3.20;93.00;;;;;;5039532;28;20196;-67
2022/02/01 12:26:53;;;;;;;0.30;0.30;;;2.90;93.10;;;;;;5039387;28;20181;-67
2022/02/01 12:29:19;;;;;;;0.40;0.40;;;2.80;93.80;;;;;;5039848;28;20229;-68
2022/02/01 12:31:45;;;;;;;0.40;0.40;;;2.80;94.40;;;;;;5039428;28;20177;-68
2022/02/01 12:34:16;;;;;;;0.30;0.30;;;2.50;94.90;;;;;;5036258;28;20214;-67
2022/02/01 12:36:44;;;;;;;0.30;0.30;;;2.30;94.90;;;;;;5036418;28;20814;-68
2022/02/01 12:39:25;;;;;;;0.30;0.30;;;2.40;95.10;;;;;;5036071;28;20172;-68
2022/02/01 12:42:03;;;;;;;0.30;0.30;;;2.60;95.10;;;;;;5036354;28;20174;-67
2022/02/01 12:47:05;;;;;;;0.30;0.30;;;2.90;94.50;;;;;;5036154;28;20176;-67
2022/02/01 12:49:37;;;;;;;0.30;0.30;;;2.90;94.30;;;;;;5035860;28;20191;-68
2022/02/01 12:52:16;;;;;;;0.30;0.30;;;2.70;94.50;;;;;;5036016;28;20558;-68
2022/02/01 12:54:42;;;;;;;0.40;0.40;;;2.70;94.90;;;;;;5035875;28;20186;-68
2022/02/01 12:57:18;;;;;;;0.30;0.30;;;2.30;94.80;;;;;;5035877;28;20206;-67
2022/02/01 12:59:52;;;;;;;0.40;0.40;;;2.30;95.80;;;;;;5035839;28;20410;-68
2022/02/01 13:02:22;;;;;;;0.32;0.32;;;2.40;96.00;;;;;;5034737;28;20170;-67
2022/02/01 13:04:52;;;;;;;0.30;0.30;;;2.80;96.00;;;;;;5035934;28;20200;-68
2022/02/01 13:07:55;;;;;;;0.40;0.40;;;2.90;95.20;;;;;;5035709;28;20194;-68
2022/02/01 13:16:05;;;;;;;0.40;0.40;;;2.50;94.90;;;;;;5035479;28;20554;-68
2022/02/01 13:20:59;;;;;;;0.35;0.35;;;3.10;95.00;;;;;;5035666;28;20172;-68
2022/02/01 13:23:42;;;;;;;0.30;0.30;;;3.20;94.60;;;;;;5035419;28;20297;-68
2022/02/01 13:26:19;;;;;;;0.40;0.40;;;3.60;94.70;;;;;;5035755;28;20228;-68
2022/02/01 13:29:10;;;;;;;0.30;0.30;;;3.70;93.70;;;;;;5035274;28;20172;-68
2022/02/01 13:31:41;;;;;;;0.30;0.30;;;3.50;93.70;;;;;;5035444;28;20190;-68
2022/02/01 13:34:11;;;;;;;0.40;0.40;;;3.60;94.10;;;;;;5035301;28;20213;-68
2022/02/01 13:36:48;;;;;;;0.30;0.30;;;3.30;93.70;;;;;;5035104;28;20276;-67
2022/02/01 13:39:32;;;;;;;0.38;0.38;;;3.30;94.20;;;;;;5035060;28;20241;-67
2022/02/01 13:42:07;;;;;;;0.30;0.30;;;3.50;94.00;;;;;;5035269;28;20537;-67
2022/02/01 13:44:33;;;;;;;0.30;0.30;;;3.60;94.30;;;;;;5034702;28;20272;-68
2022/02/01 13:47:09;;;;;;;0.40;0.40;;;3.90;94.40;;;;;;5034706;28;20243;-68
2022/02/01 13:49:36;;;;;;;0.30;0.30;;;3.70;93.70;;;;;;5034970;28;20584;-68
2022/02/01 13:52:03;;;;;;;0.30;0.30;;;3.80;94.00;;;;;;5035036;28;20174;-68
2022/02/01 13:54:40;;;;;;;0.30;0.30;;;3.90;93.90;;;;;;5034638;28;20280;-68
2022/02/01 13:57:18;;;;;;;0.30;0.30;;;4.10;93.60;;;;;;5035057;28;20213;-68
2022/02/01 13:59:45;;;;;;;0.40;0.40;;;4.20;92.90;;;;;;5033296;28;20179;-68
2022/02/01 14:02:19;;;;;;;0.40;0.40;;;4.20;92.70;;;;;;5034726;28;20177;-68
2022/02/01 14:05:15;;;;;;;0.40;0.40;;;4.00;92.80;;;;;;5034742;28;20288;-67
2022/02/01 14:10:43;;;;;;;0.40;0.40;;;3.80;93.20;;;;;;5034577;28;20220;-67
2022/02/01 14:27:16;;;;;;;0.40;0.40;;;4.40;92.40;;;;;;5034327;28;20261;-68
2022/02/01 14:34:36;;;;;;;0.35;0.35;;;4.40;91.90;;;;;;5033903;28;20241;-68
2022/02/01 14:37:10;;;;;;;0.30;0.30;;;4.40;91.90;;;;;;5034170;28;20259;-68
2022/02/01 14:45:05;;;;;;;0.40;0.40;;;4.40;92.30;;;;;;5033916;28;20199;-68
2022/02/01 14:47:30;;;;;;;0.35;0.35;;;4.40;91.60;;;;;;5033889;28;20185;-69
2022/02/01 14:49:57;;;;;;;0.40;0.40;;;4.40;91.70;;;;;;5033791;28;20175;-68
2022/02/01 14:52:23;;;;;;;0.30;0.30;;;4.30;91.60;;;;;;5033911;28;20544;-68
2022/02/01 14:54:51;;;;;;;0.30;0.30;;;4.30;92.30;;;;;;5033604;28;20201;-68
2022/02/01 15:13:32;;;;;;;0.30;0.30;;;4.00;92.10;;;;;;5033883;28;20726;-68
2022/02/01 15:15:57;;;;;;;0.35;0.35;;;3.90;92.50;;;;;;5033325;28;20215;-68
2022/02/01 15:18:23;;;;;;;0.40;0.40;;;3.90;92.80;;;;;;5033286;28;20171;-68
2022/02/01 15:20:51;;;;;;;0.40;0.40;;;3.90;92.90;;;;;;5033102;28;20585;-68
2022/02/01 15:23:17;;;;;;;0.35;0.35;;;4.00;93.10;;;;;;5033480;28;20197;-68